タリン の空港の天気 - METARとTAF

タリン空港 ( EETN / TLL ) - エストニア タリン
飛行場実況気象(Metar)
観測時間05/28 07:20 EEST (05/28 04:20 UTC)
風向・風速北北西 6m/s
視程10km以上
天気現象周辺でしゅう雨
全天の4割程度の雲 雲底高度 210m
全天の4割程度の雲 雲底高度 610m
全天を覆う雲 雲底高度 1190m
気温10℃
湿度94%
気圧1022hPa
METAREETN 280420Z 33011KT 9999 VCSH SCT007 SCT020CB OVC039 10/09 Q1022 TEMPO 5000 SHRA
過去の天気等 Google飛行場航空写真 Wunderground天気予報

過去48時間のMETAR

飛行場予報(TAF)
発表時間: 5/28 02:27 EEST (5/27 23:27 UTC)
予報対象時間: 28日3時 EEST ~ 29日3時 EEST
風向・風速西 4m/s
視程10km以上
全天の4割程度の雲 雲底高度 910m
28日3時 EEST ~ 28日7時 EEST に一時的に
視程3000m
天気現象しゅう雨 もや
全天の8割程度の雲 雲底高度 150m
全天の4割程度の積乱雲 雲底高度 610m
28日5時 EEST ~ 28日9時 EEST に 確率 30% で一時的に
天気現象雷雨
28日6時 EEST ~ 28日8時 EEST に徐々に
風向・風速北北西 6m/s
28日7時 EEST ~ 28日11時 EEST に 確率 40% で一時的に
全天の8割程度の雲 雲底高度 370m
全天の4割程度の積乱雲 雲底高度 760m
TAF EETN 272327Z 2800/2824 26008KT 9999 SCT030
TEMPO 2800/2804 3000 SHRA BR BKN005 SCT020CB
PROB30 TEMPO 2802/2806 TSRA
BECMG 2803/2805 33012KT
PROB40 TEMPO 2804/2808 BKN012 SCT025CB